Brown Field Municipal Airport
KSDM : now visible

Airfield :











YOU CAN JOIN US ON...

 
LOGIN :

Register | Disclaimer

   EN    FR    IT 

 









Legend :    VFR   Marginal VFR   IFR   Intensive IFR   Very Intensive IFR
Visi :
Ceiling :
>= 8 km
>= 3000ft
5 to 8 km
1000 to 3000 ft
1500m to 5 km
500 to 1000 ft
800 to 1500m
200 to 500 ft
< 800m
< 200 ft
Symbols :   Thunderstorms  Fog  Heavy snow  Heavy precipitations  Wind > 20 kt






- Airport Elevation : 526 ft


KSDM - Brown Field Municipal

CURRENT METAR :
  • 271453Z 04004KT 4SM HZ OVC008 14/12 A3004 RMK AO2 SLP172 T01440117 53011

EXPIRED METARs :
  • 271439Z AUTO VRB03KT 2SM BR OVC008 14/12 A3004 RMK AO2 VIS 1/2V5 T01390117
  • 271401Z AUTO 04004KT 4SM BR OVC009 14/12 A3003 RMK AO2 T01390117
  • 271353Z AUTO VRB03KT 2 1/2SM BR OVC009 14/12 A3003 RMK AO2 VIS 1 1/4V5 SLP168 T01390117
  • 271332Z AUTO 04003KT 3SM BR OVC009 14/12 A3003 RMK AO2 CIG 007V012 T01390117
  • 271305Z AUTO 06004KT 1 1/2SM HZ OVC010 14/11 A3002 RMK AO2 CIG 008V012 T01390111
  • 271253Z AUTO 06005KT 2 1/2SM HZ OVC009 14/11 A3002 RMK AO2 VIS 1 1/2V5 CIG 008V012 SLP163 T01390111
  • 271238Z AUTO 07005KT 2SM HZ OVC009 14/11 A3002 RMK AO2 VIS 1 1/4V4 T01390111
  • 271220Z AUTO 06005KT 4SM HZ OVC009 14/11 A3002 RMK AO2 T01390111
  • 271153Z AUTO 04003KT 6SM HZ OVC010 14/11 A3001 RMK AO2 SLP159 T01390111 10144 20122 53000
  • 271053Z AUTO 07004KT 5SM HZ OVC010 14/11 A3001 RMK AO2 SLP158 T01390111
  • 271039Z AUTO 07004KT 5SM HZ OVC010 14/11 A3001 RMK AO2 T01390111
  • 271029Z AUTO 07005KT 8SM OVC009 14/11 A3001 RMK AO2 T01390111

TAF N/A
KZLA FIR / North America



MET'MAP, your aeronautical weather chart ! - Copyright ORBIFLY December 2007 - Disclaimer

ORBIFLY MET'MAP TEAM :

Programming & Development : Alexandra Zaïnal
Original concept : Baudouin d'Aumeries
Technical & hardware support : Manuel Goepfert
Assistance : Marc-Olivier Méhu




SOURCES & CREDITS :

   NOAA       Earth
Advisory